Data for 10/04/2017

Time Sea-Level Adjusted Pressure Absolute Pressure Temperature Relative Humidity Dew Point   
(mb) (inHg) (mb) (inHg) (C) (F) (%) (C) (F)
00:05 1028 30.36 857 25.31 -2 28.4 77 -5.5 22.2
00:10 1028 30.36 857 25.31 -1.9 28.6 78 -5.2 22.6
00:15 1027 30.33 857 25.31 -2.2 28 79 -5.3 22.4
00:20 1027 30.33 857 25.31 -2.3 27.9 79 -5.4 22.3
00:25 1027 30.33 857 25.31 -2.5 27.6 80 -5.4 22.3
00:30 1027 30.33 857 25.31 -2.5 27.5 80 -5.5 22.2
00:35 1027 30.33 856 25.28 -2.6 27.3 81 -5.4 22.2
00:40 1027 30.33 856 25.28 -2.6 27.3 81 -5.4 22.2
00:45 1027 30.33 856 25.28 -2.6 27.3 81 -5.4 22.3
00:50 1027 30.33 856 25.28 -2.8 26.9 82 -5.4 22.3
00:55 1027 30.33 856 25.28 -2.9 26.8 82 -5.5 22.2
01:00 1027 30.33 856 25.28 -2.7 27.1 82 -5.4 22.3
01:05 1027 30.33 856 25.28 -2.9 26.9 83 -5.4 22.3
01:10 1027 30.33 856 25.28 -2.7 27.2 82 -5.4 22.3
01:15 1027 30.33 856 25.28 -2.2 28 79 -5.4 22.3
01:20 1027 30.33 856 25.28 -2.3 27.9 80 -5.3 22.4
01:25 1027 30.33 856 25.28 -2.9 26.8 82 -5.5 22.1
01:30 1027 30.33 856 25.28 -3.2 26.3 83 -5.6 21.9
01:35 1027 30.33 856 25.28 -3.1 26.4 83 -5.6 21.9
01:40 1027 30.33 856 25.28 -2.9 26.8 81 -5.7 21.8
01:45 1027 30.33 856 25.28 -2.8 26.9 82 -5.5 22.1
01:50 1027 30.33 856 25.28 -2.9 26.8 82 -5.5 22.1
01:55 1027 30.33 856 25.28 -2.6 27.3 81 -5.5 22.1
02:00 1027 30.33 856 25.28 -2.7 27.2 81 -5.5 22.2
02:05 1027 30.33 856 25.28 -2.9 26.8 82 -5.6 21.9
02:10 1027 30.33 856 25.28 -3 26.6 82 -5.7 21.8
02:15 1027 30.33 856 25.28 -3.1 26.5 82 -5.7 21.8
02:20 1027 30.33 856 25.28 -3 26.5 82 -5.7 21.8
02:25 1027 30.33 856 25.28 -2.8 27 80 -5.7 21.7
02:30 1027 30.33 856 25.28 -3.2 26.2 82 -5.8 21.5
02:35 1027 30.33 856 25.28 -3.3 26 83 -5.9 21.4
02:40 1026 30.3 856 25.28 -3.3 26 82 -5.9 21.3
02:45 1026 30.3 856 25.28 -3.4 26 82 -5.9 21.3
02:50 1026 30.3 856 25.28 -3.3 26.1 82 -5.9 21.4
02:55 1026 30.3 856 25.28 -3.5 25.7 83 -5.9 21.3
03:00 1026 30.3 855 25.25 -3.7 25.4 84 -6 21.2
03:05 1026 30.3 855 25.25 -3.8 25.2 85 -6 21.2
03:10 1026 30.3 855 25.25 -3.9 25 85 -6.1 21.1
03:15 1026 30.3 855 25.25 -3.9 25 85 -6.1 21
03:20 1026 30.3 855 25.25 -4 24.8 85 -6.2 20.9
03:25 1026 30.3 855 25.25 -4.2 24.5 86 -6.2 20.9
03:30 1026 30.3 855 25.25 -3.8 25.2 85 -6 21.3
03:35 1025 30.27 855 25.25 -3.4 25.9 83 -5.9 21.4
03:40 1025 30.27 855 25.25 -3.5 25.8 83 -5.9 21.4
03:45 1025 30.27 855 25.25 -3.3 26.1 82 -5.9 21.4
03:50 1025 30.27 854 25.22 -3.4 26 82 -6 21.2
03:55 1025 30.27 854 25.22 -3.5 25.7 83 -6 21.3
04:00 1025 30.27 854 25.22 -3.5 25.6 83 -6 21.2
04:05 1025 30.27 854 25.22 -3.5 25.8 82 -6.1 21
04:10 1025 30.27 854 25.22 -3.5 25.7 83 -6 21.1
04:15 1025 30.27 854 25.22 -3.6 25.5 84 -6 21.2
04:20 1025 30.27 854 25.22 -3.7 25.3 84 -6.1 21.1
04:25 1025 30.27 854 25.22 -3.8 25.1 85 -6.1 21.1
04:30 1025 30.27 854 25.22 -3.8 25.1 84 -6.1 21
04:35 1025 30.27 854 25.22 -3.8 25.2 83 -6.2 20.8
04:40 1025 30.27 854 25.22 -3.8 25.1 83 -6.4 20.5
04:45 1025 30.27 854 25.22 -4.2 24.4 85 -6.3 20.6
04:50 1025 30.27 854 25.22 -4.4 24.1 86 -6.4 20.5
04:55 1025 30.27 854 25.22 -4.4 24 86 -6.4 20.5
05:00 1025 30.27 854 25.22 -4.5 23.9 86 -6.5 20.2
05:05 1025 30.27 854 25.22 -4.7 23.5 86 -6.7 20
05:10 1025 30.27 854 25.22 -5 23 88 -6.7 19.9
05:15 1025 30.27 854 25.22 -5 23.1 87 -6.7 19.9
05:20 1025 30.27 854 25.22 -4.8 23.4 86 -6.7 19.9
05:25 1025 30.27 854 25.22 -4.6 23.7 87 -6.5 20.2
05:30 1025 30.27 854 25.22 -4.4 24.2 85 -6.5 20.3
05:35 1025 30.27 854 25.22 -4.4 24 85 -6.5 20.2
05:40 1025 30.27 854 25.22 -4.5 23.9 86 -6.6 20.1
05:45 1025 30.27 854 25.22 -4.7 23.6 87 -6.6 20.1
05:50 1025 30.27 854 25.22 -4.7 23.6 86 -6.7 20
05:55 1025 30.27 854 25.22 -4.6 23.8 85 -6.7 20
06:00 1025 30.27 854 25.22 -4.4 24 86 -6.4 20.4
06:05 1025 30.27 854 25.22 -4.1 24.6 85 -6.2 20.8
06:10 1025 30.27 854 25.22 -4 24.8 84 -6.3 20.6
06:15 1025 30.27 854 25.22 -4.1 24.7 84 -6.4 20.4
06:20 1025 30.27 854 25.22 -4.2 24.5 85 -6.4 20.5
06:25 1025 30.27 854 25.22 -4.3 24.3 85 -6.4 20.4
06:30 1025 30.27 854 25.22 -4.4 24.1 84 -6.7 20
06:35 1024 30.24 854 25.22 -4.7 23.6 85 -6.8 19.8
06:40 1024 30.24 854 25.22 -4.8 23.4 86 -6.8 19.7
06:45 1024 30.24 854 25.22 -4.6 23.7 85 -6.7 19.9
06:50 1024 30.24 854 25.22 -4.6 23.7 85 -6.8 19.8
06:55 1024 30.24 853 25.19 -4.6 23.8 85 -6.7 19.9
07:00 1024 30.24 853 25.19 -4.5 23.9 85 -6.7 19.9
07:05 1024 30.24 853 25.19 -4.4 24.1 85 -6.5 20.2
07:10 1024 30.24 853 25.19 -4.3 24.2 84 -6.6 20
07:15 1024 30.24 853 25.19 -4.4 24 84 -6.7 20
07:20 1024 30.24 853 25.19 -4.4 24 84 -6.7 19.9
07:25 1024 30.24 853 25.19 -4.4 24.1 84 -6.7 19.9
07:30 1024 30.24 853 25.19 -4.5 23.9 84 -6.8 19.7
07:35 1024 30.24 853 25.19 -4.8 23.4 85 -6.9 19.5
07:40 1024 30.24 853 25.19 -5 23.1 86 -7 19.4
07:45 1024 30.24 853 25.19 -4.8 23.4 85 -6.9 19.6
07:50 1024 30.24 854 25.22 -4.2 24.4 82 -6.8 19.8
07:55 1024 30.24 854 25.22 -3.9 24.9 81 -6.7 20
08:00 1024 30.24 853 25.19 -3.6 25.6 80 -6.6 20.1
08:05 1024 30.24 853 25.19 -3.5 25.6 79 -6.6 20.1
08:10 1024 30.24 853 25.19 -3.4 26 78 -6.7 20
08:15 1024 30.24 853 25.19 -3 26.5 77 -6.5 20.3
08:20 1024 30.24 853 25.19 -2.9 26.8 76 -6.5 20.2
08:25 1024 30.24 853 25.19 -2.5 27.5 75 -6.3 20.6
08:30 1024 30.24 853 25.19 -2 28.4 73 -6.3 20.7
08:35 1024 30.24 853 25.19 -1.7 29 74 -5.8 21.5
08:40 1024 30.24 853 25.19 -1.7 28.9 73 -5.9 21.3
08:45 1024 30.24 853 25.19 -1.1 29.9 71 -5.8 21.6
08:50 1024 30.24 853 25.19 -0.7 30.8 68 -5.8 21.6
08:55 1024 30.24 853 25.19 -0.8 30.6 69 -5.7 21.8
09:00 1024 30.24 853 25.19 -1.7 28.9 74 -5.7 21.8
09:05 1024 30.24 853 25.19 -1.4 29.5 71 -5.9 21.3
09:10 1024 30.24 853 25.19 -1.2 29.8 72 -5.7 21.8
09:15 1024 30.24 853 25.19 -1 30.3 72 -5.5 22.2
09:20 1024 30.24 853 25.19 -1.5 29.4 75 -5.4 22.3
09:25 1024 30.24 853 25.19 -1.2 29.8 73 -5.4 22.2
09:30 1024 30.24 853 25.19 -1.2 29.8 76 -5 23.1
09:35 1024 30.24 853 25.19 -1 30.2 77 -4.5 23.8
09:40 1024 30.24 853 25.19 -1.1 30 78 -4.5 24
09:45 1024 30.24 853 25.19 -0.6 30.9 76 -4.4 24
09:50 1024 30.24 853 25.19 -0 32 73 -4.3 24.2
09:55 1024 30.24 853 25.19 -0.8 30.6 76 -4.4 24.1
10:00 1024 30.24 854 25.22 -1.1 30 79 -4.3 24.2
10:05 1024 30.24 853 25.19 -0.8 30.5 77 -4.4 24
10:10 1024 30.24 853 25.19 -0.5 31.1 75 -4.5 24
10:15 1024 30.24 853 25.19 -0.3 31.4 76 -4 24.8
10:20 1024 30.24 853 25.19 -0.3 31.5 76 -3.9 24.9
10:25 1024 30.24 853 25.19 -0.3 31.5 75 -4.2 24.4
10:30 1024 30.24 853 25.19 -0.3 31.5 75 -4.1 24.6
10:35 1024 30.24 853 25.19 0.1 32.2 73 -4.1 24.5
10:40 1024 30.24 853 25.19 0.5 32.9 73 -3.8 25.1
10:45 1024 30.24 853 25.19 0.7 33.2 71 -4 24.8
10:50 1023 30.21 853 25.19 0.5 33 73 -3.8 25.1
10:55 1023 30.21 853 25.19 0.6 33 71 -4.1 24.7
11:00 1023 30.21 853 25.19 1.2 34.1 70 -3.7 25.4
11:05 1023 30.21 853 25.19 1.3 34.3 68 -3.9 24.9
11:10 1023 30.21 853 25.19 1 33.7 74 -3.2 26.2
11:15 1023 30.21 852 25.16 1.1 34 70 -3.8 25.2
11:20 1023 30.21 852 25.16 1.3 34.3 68 -3.9 25
11:25 1023 30.21 852 25.16 0.8 33.5 73 -3.4 25.8
11:30 1023 30.21 852 25.16 1 33.8 72 -3.5 25.7
11:35 1023 30.21 852 25.16 1.1 34 70 -3.7 25.3
11:40 1023 30.21 852 25.16 1.1 33.9 71 -3.6 25.6
11:45 1023 30.21 852 25.16 0.8 33.5 70 -4 24.7
11:50 1023 30.21 852 25.16 1 33.7 71 -3.6 25.5
11:55 1023 30.21 852 25.16 0.7 33.3 73 -3.7 25.4
12:00 1023 30.21 852 25.16 1.1 34 70 -3.8 25.1
12:05 1023 30.21 852 25.16 2 35.6 66 -3.6 25.5
12:10 1023 30.21 852 25.16 2.2 35.9 67 -3.3 26.1
12:15 1023 30.21 852 25.16 2.1 35.8 65 -3.7 25.3
12:20 1023 30.21 852 25.16 2.3 36.1 65 -3.5 25.7
12:25 1023 30.21 852 25.16 2.3 36.1 66 -3.4 25.8
12:30 1023 30.21 852 25.16 2.4 36.4 65 -3.4 25.9
12:35 1023 30.21 852 25.16 2.5 36.5 65 -3.5 25.7
12:40 1023 30.21 852 25.16 2.4 36.2 65 -3.5 25.6
12:45 1023 30.21 852 25.16 2.5 36.5 64 -3.7 25.4
12:50 1023 30.21 852 25.16 2 35.5 64 -4.2 24.4
12:55 1023 30.21 852 25.16 2.7 36.8 61 -4 24.8
13:00 1022 30.18 852 25.16 2.8 37.1 65 -3.2 26.2
13:05 1022 30.18 852 25.16 3.4 38.1 60 -3.6 25.5
13:10 1022 30.18 852 25.16 4.1 39.5 59 -3.1 26.5
13:15 1022 30.18 852 25.16 4 39.2 59 -3.3 26
13:20 1022 30.18 851 25.13 4.3 39.7 56 -3.6 25.4
13:25 1022 30.18 852 25.16 4.5 40.1 56 -3.5 25.8
13:30 1022 30.18 852 25.16 4.1 39.4 59 -3.2 26.2
13:35 1022 30.18 851 25.13 3.5 38.4 61 -3.3 26.1
13:40 1022 30.18 852 25.16 3.5 38.2 62 -3.1 26.4
13:45 1022 30.18 852 25.16 3.5 38.3 63 -2.9 26.8
13:50 1022 30.18 852 25.16 3.7 38.7 60 -3.2 26.2
13:55 1022 30.18 852 25.16 3.5 38.3 63 -2.8 26.9
14:00 1022 30.18 852 25.16 3.2 37.7 63 -3.2 26.3
14:05 1022 30.18 852 25.16 2.7 36.9 64 -3.3 26
14:10 1022 30.18 852 25.16 2.9 37.1 64 -3.4 25.9
14:15 1023 30.21 852 25.16 2.9 37.2 64 -3.3 26.1
14:20 1023 30.21 852 25.16 3.2 37.8 61 -3.6 25.6
14:25 1023 30.21 852 25.16 3.3 37.9 64 -3 26.6
14:30 1023 30.21 852 25.16 2.9 37.2 64 -3.3 26
14:35 1023 30.21 852 25.16 3.2 37.8 63 -3.2 26.2
14:40 1023 30.21 852 25.16 3.6 38.4 60 -3.5 25.8
14:45 1023 30.21 852 25.16 3.4 38.1 61 -3.5 25.8
14:50 1023 30.21 852 25.16 3.4 38.1 61 -3.4 25.8
14:55 1023 30.21 853 25.19 3.4 38.1 61 -3.3 26
15:00 1023 30.21 853 25.19 3.4 38.2 61 -3.4 25.9
15:05 1023 30.21 852 25.16 3.1 37.5 64 -3.1 26.5
15:10 1023 30.21 852 25.16 2.6 36.6 65 -3.4 25.9
15:15 1023 30.21 852 25.16 3.1 37.5 62 -3.4 25.8
15:20 1023 30.21 852 25.16 3 37.4 63 -3.4 25.9
15:25 1023 30.21 852 25.16 3.1 37.6 62 -3.5 25.6
15:30 1023 30.21 852 25.16 3.5 38.3 60 -3.4 25.8
15:35 1023 30.21 853 25.19 3.7 38.7 61 -3 26.6
15:40 1023 30.21 853 25.19 3.7 38.7 60 -3.4 25.9
15:45 1023 30.21 852 25.16 3.6 38.5 62 -3 26.6
15:50 1023 30.21 852 25.16 3.6 38.5 61 -3.2 26.2
15:55 1023 30.21 853 25.19 3.7 38.7 61 -3.1 26.5
16:00 1023 30.21 853 25.19 3.7 38.7 60 -3.3 26
16:05 1023 30.21 852 25.16 3.6 38.5 62 -3 26.6
16:10 1023 30.21 852 25.16 3.2 37.7 64 -3 26.6
16:15 1023 30.21 852 25.16 3.3 37.9 65 -2.8 27
16:20 1023 30.21 852 25.16 3.5 38.2 65 -2.5 27.5
16:25 1023 30.21 853 25.19 3.4 38.1 64 -2.8 26.9
16:30 1024 30.24 853 25.19 3 37.5 66 -2.7 27.1
16:35 1024 30.24 853 25.19 2.9 37.2 67 -2.7 27.2
16:40 1023 30.21 853 25.19 3 37.4 69 -2.2 28.1
16:45 1024 30.24 853 25.19 3.2 37.8 66 -2.6 27.4
16:50 1024 30.24 853 25.19 3.2 37.8 68 -2.2 28.1
16:55 1024 30.24 853 25.19 3.2 37.8 65 -2.7 27.1
17:00 1024 30.24 853 25.19 3.3 37.9 63 -3 26.6
17:05 1024 30.24 853 25.19 3.1 37.7 65 -2.8 26.9
17:10 1024 30.24 853 25.19 3.1 37.6 65 -2.8 27
17:15 1024 30.24 853 25.19 2.9 37.2 65 -3.1 26.5
17:20 1024 30.24 853 25.19 2.8 37 65 -3.1 26.4
17:25 1024 30.24 853 25.19 2.8 37.1 66 -2.8 27
17:30 1024 30.24 853 25.19 3 37.5 66 -2.8 27
17:35 1024 30.24 853 25.19 2.9 37.2 66 -2.9 26.7
17:40 1024 30.24 853 25.19 2.6 36.7 66 -3.1 26.5
17:45 1024 30.24 853 25.19 2.6 36.6 67 -3.1 26.5
17:50 1024 30.24 853 25.19 2.5 36.6 66 -3.1 26.5
17:55 1024 30.24 853 25.19 2.7 36.8 66 -3 26.6
18:00 1024 30.24 853 25.19 2.6 36.6 69 -2.5 27.4
18:05 1024 30.24 853 25.19 2.5 36.6 70 -2.4 27.7
18:10 1024 30.24 853 25.19 2.6 36.7 70 -2.3 27.9
18:15 1024 30.24 853 25.19 2.5 36.6 71 -2.3 27.9
18:20 1024 30.24 853 25.19 2.6 36.6 70 -2.3 27.8
18:25 1024 30.24 853 25.19 2.6 36.6 71 -2.1 28.2
18:30 1024 30.24 853 25.19 2.5 36.5 73 -1.9 28.6
18:35 1024 30.24 853 25.19 2.5 36.5 73 -1.9 28.6
18:40 1024 30.24 854 25.22 2.1 35.9 76 -1.7 29
18:45 1024 30.24 853 25.19 2 35.7 78 -1.5 29.4
18:50 1024 30.24 853 25.19 2.1 35.8 79 -1.2 29.8
18:55 1024 30.24 854 25.22 2.1 35.8 80 -1 30.3
19:00 1024 30.24 853 25.19 2.1 35.8 81 -0.9 30.4
19:05 1024 30.24 854 25.22 2.1 35.7 81 -0.8 30.5
19:10 1024 30.24 854 25.22 2 35.6 81 -0.9 30.4
19:15 1024 30.24 854 25.22 2 35.6 81 -0.9 30.4
19:20 1025 30.27 854 25.22 1.9 35.5 81 -0.9 30.3
19:25 1025 30.27 854 25.22 1.9 35.4 82 -0.9 30.3
19:30 1025 30.27 854 25.22 1.9 35.4 83 -0.8 30.6
19:35 1025 30.27 854 25.22 2 35.5 82 -0.8 30.6
19:40 1025 30.27 854 25.22 2 35.6 82 -0.7 30.7
19:45 1025 30.27 854 25.22 2 35.7 82 -0.7 30.7
19:50 1025 30.27 854 25.22 2.1 35.7 82 -0.7 30.8
19:55 1025 30.27 854 25.22 2 35.6 82 -0.7 30.7
20:00 1025 30.27 854 25.22 1.9 35.5 82 -0.8 30.6
20:05 1025 30.27 854 25.22 2 35.5 82 -0.7 30.7
20:10 1025 30.27 854 25.22 2 35.6 83 -0.6 30.8
20:15 1025 30.27 854 25.22 2 35.7 83 -0.6 31
20:20 1025 30.27 854 25.22 2 35.7 83 -0.6 30.9
20:25 1025 30.27 854 25.22 2 35.7 83 -0.6 30.9
20:30 1025 30.27 854 25.22 2.1 35.7 83 -0.6 31
20:35 1025 30.27 854 25.22 2.1 35.7 82 -0.6 30.9
20:40 1025 30.27 854 25.22 2.1 35.7 83 -0.5 31.1
20:45 1025 30.27 854 25.22 2.1 35.7 84 -0.3 31.4
20:50 1025 30.27 854 25.22 1.8 35.2 86 -0.4 31.3
20:55 1025 30.27 854 25.22 1.6 34.9 87 -0.4 31.4
21:00 1025 30.27 854 25.22 1.7 35.1 87 -0.3 31.5
21:05 1025 30.27 854 25.22 1.7 35.1 87 -0.3 31.5
21:10 1025 30.27 854 25.22 1.7 35.1 86 -0.3 31.4
21:15 1025 30.27 854 25.22 1.6 34.9 87 -0.3 31.4
21:20 1025 30.27 854 25.22 1.5 34.7 88 -0.3 31.4
21:25 1025 30.27 855 25.25 1.6 34.8 88 -0.2 31.6
21:30 1025 30.27 855 25.25 1.5 34.7 88 -0.2 31.6
21:35 1025 30.27 855 25.25 1.5 34.7 89 -0.2 31.7
21:40 1025 30.27 854 25.22 1.7 35 88 -0.2 31.7
21:45 1025 30.27 855 25.25 1.6 34.9 88 -0.2 31.6
21:50 1025 30.27 855 25.25 1.6 34.9 87 -0.3 31.5
21:55 1025 30.27 855 25.25 1.6 34.9 87 -0.3 31.4
22:00 1025 30.27 855 25.25 1.5 34.6 87 -0.4 31.3
22:05 1025 30.27 855 25.25 1.2 34.1 89 -0.5 31.1
22:10 1025 30.27 855 25.25 1.1 34 89 -0.6 31
22:15 1025 30.27 855 25.25 1 33.8 90 -0.5 31.1
22:20 1025 30.27 855 25.25 1.1 33.9 89 -0.6 31
22:25 1025 30.27 855 25.25 1 33.9 89 -0.6 31
22:30 1025 30.27 855 25.25 1 33.9 89 -0.5 31.1
22:35 1025 30.27 855 25.25 1.1 34 90 -0.4 31.3
22:40 1025 30.27 855 25.25 1.2 34.2 89 -0.5 31.2
22:45 1025 30.27 855 25.25 1.3 34.3 87 -0.6 30.9
22:50 1025 30.27 855 25.25 1.3 34.4 87 -0.6 30.9
22:55 1025 30.27 855 25.25 1.4 34.4 87 -0.6 30.9
23:00 1025 30.27 855 25.25 1.4 34.5 87 -0.6 30.9
23:05 1025 30.27 855 25.25 1.4 34.4 87 -0.6 31
23:10 1025 30.27 855 25.25 1.4 34.5 87 -0.5 31
23:15 1026 30.3 855 25.25 1.4 34.5 87 -0.5 31
23:20 1025 30.27 855 25.25 1.4 34.5 87 -0.5 31.1
23:25 1025 30.27 855 25.25 1.3 34.4 87 -0.5 31
23:30 1025 30.27 855 25.25 1.3 34.3 87 -0.6 30.9
23:35 1025 30.27 855 25.25 1.2 34.1 88 -0.6 30.9
23:40 1025 30.27 855 25.25 1.2 34.1 88 -0.6 31
23:45 1025 30.27 855 25.25 1.2 34.1 88 -0.5 31
23:50 1025 30.27 855 25.25 1.2 34.1 89 -0.5 31.1
23:55 1025 30.27 855 25.25 1.3 34.3 88 -0.4 31.2
24:00 1025 30.27 855 25.25 1.3 34.3 89 -0.4 31.3